Temperatura - Umidità - Pioggia orarie dal 24-11-2022 al 02-12-2022

Intensità - Direzione vento orarie dal 24-11-2022 al 02-12-2022

Dati orari da stazione meteo dal 24-11-2022 al 02-12-2022

Nome Stazione Data Ora Temperatura [°C] Umidità [%] Pioggia [mm] Intensità vento[km/h] Direzione vento [°]
Savigliano 24-11-2022 01:00 1.7 77.6 0 2.2 191
Savigliano 24-11-2022 02:00 0.9 77.8 0 1.8 185
Savigliano 24-11-2022 03:00 0.5 77.2 0 1.8 174
Savigliano 24-11-2022 04:00 -0.6 80.4 0 2.2 167
Savigliano 24-11-2022 05:00 -0.7 83.3 0 1.8 146
Savigliano 24-11-2022 06:00 -0.7 82.6 0 1.1 174
Savigliano 24-11-2022 07:00 -0.6 82.3 0 0.4 179
Savigliano 24-11-2022 08:00 -1 83.1 0 0.7 173
Savigliano 24-11-2022 09:00 1.3 78.4 0 4.3 176
Savigliano 24-11-2022 10:00 6.1 66.8 0 2.2 161
Savigliano 24-11-2022 11:00 9.6 58.7 0 2.2 152
Savigliano 24-11-2022 12:00 11.2 58.1 0 2.2 123
Savigliano 24-11-2022 13:00 13.7 51.5 0 1.4 146
Savigliano 24-11-2022 14:00 12.4 59.1 0 2.5 264
Savigliano 24-11-2022 15:00 12.7 55.6 0 2.5 280
Savigliano 24-11-2022 16:00 12.2 57.9 0 1.4 298
Savigliano 24-11-2022 17:00 10.8 60.9 0 0.4 297
Savigliano 24-11-2022 18:00 8.1 66.5 0 0.4 292
Savigliano 24-11-2022 19:00 7 64.7 0 0 278
Savigliano 24-11-2022 20:00 4.9 70.7 0 0 213
Savigliano 24-11-2022 21:00 3.8 77.4 0 0.7 173
Savigliano 24-11-2022 22:00 4 78.2 0 1.1 174
Savigliano 24-11-2022 23:00 4.2 78.1 0 1.1 178
Savigliano 25-11-2022 00:00 4.3 75.6 0 0.4 172
Savigliano 25-11-2022 01:00 4.7 78.6 0 1.1 149
Savigliano 25-11-2022 02:00 4.6 80.3 0 0.7 165
Savigliano 25-11-2022 03:00 4.8 80 0 0 188
Savigliano 25-11-2022 04:00 4.2 77.3 0 0.4 261
Savigliano 25-11-2022 05:00 3 77.5 0 0 269
Savigliano 25-11-2022 06:00 4 72.2 0 0.4 240
Savigliano 25-11-2022 07:00 2.4 76.2 0 0.4 203
Savigliano 25-11-2022 08:00 1.8 81.5 0 0 148
Savigliano 25-11-2022 09:00 1.9 80.9 0 0.7 202
Savigliano 25-11-2022 10:00 3.8 76.5 0 0.4 173
Savigliano 25-11-2022 11:00 6.7 67.8 0 0 176
Savigliano 25-11-2022 12:00 9.4 59.2 0 0.4 187
Savigliano 25-11-2022 13:00 9.4 63.2 0 1.1 309
Savigliano 25-11-2022 14:00 9.9 63.3 0 0.4 96
Savigliano 25-11-2022 15:00 11.9 59.3 0 0.7 260
Savigliano 25-11-2022 16:00 12.3 60.5 0 0.4 292
Savigliano 25-11-2022 17:00 9.6 67 0 0 325
Savigliano 25-11-2022 18:00 7 77.4 0 0 337
Savigliano 25-11-2022 19:00 6 79.5 0 0 280
Savigliano 25-11-2022 20:00 6.1 81.4 0 0.4 236
Savigliano 25-11-2022 21:00 5.4 78.7 0 0.4 237
Savigliano 25-11-2022 22:00 4.6 84.7 0 0.4 214
Savigliano 25-11-2022 23:00 2.3 84.1 0 0.4 214
Savigliano 26-11-2022 00:00 1.9 85.3 0 0 214
Savigliano 26-11-2022 01:00 1.5 88.3 0 0.4 214
Savigliano 26-11-2022 02:00 1.4 89.1 0 0 215
Savigliano 26-11-2022 03:00 0.2 89.1 0 0.4 203
Savigliano 26-11-2022 04:00 1.4 89.9 0 0.4 221
Savigliano 26-11-2022 05:00 -0.5 88.8 0 1.4 129
Savigliano 26-11-2022 06:00 -0.9 89.6 0 1.1 166
Savigliano 26-11-2022 07:00 -0.7 89.9 0 1.8 176
Savigliano 26-11-2022 08:00 -0.8 89.1 0 3.2 179
Savigliano 26-11-2022 09:00 0.8 87 0 2.5 154
Savigliano 26-11-2022 10:00 4.8 79.2 0 0.4 156
Savigliano 26-11-2022 11:00 8.7 68.2 0 0.7 193
Savigliano 26-11-2022 12:00 10.2 63.9 0 1.1 188
Savigliano 26-11-2022 13:00 12.7 60.1 0 0.4 110
Savigliano 26-11-2022 14:00 14.7 42.7 0 0.4 160
Savigliano 26-11-2022 15:00 14.6 34.8 0 1.1 202
Savigliano 26-11-2022 16:00 14.3 38.1 0 0 84
Savigliano 26-11-2022 17:00 11.6 47.8 0 0 3
Savigliano 26-11-2022 18:00 9.4 58.1 0 0 3
Savigliano 26-11-2022 19:00 7.2 63.8 0 1.1 189
Savigliano 26-11-2022 20:00 5.3 63.6 0 0.7 182
Savigliano 26-11-2022 21:00 2.3 72.8 0 0.7 169
Savigliano 26-11-2022 22:00 2.2 78.2 0 0 167
Savigliano 26-11-2022 23:00 1.1 78.6 0 0 165
Savigliano 27-11-2022 00:00 0.5 79.9 0 0.4 168
Savigliano 27-11-2022 01:00 1.6 77.5 0 0 184
Savigliano 27-11-2022 02:00 0.5 78 0 0 204
Savigliano 27-11-2022 03:00 0.4 77.7 0 0 209
Savigliano 27-11-2022 04:00 -0.6 81.1 0 0 208
Savigliano 27-11-2022 05:00 -0.6 83.6 0 0 200
Savigliano 27-11-2022 06:00 -0.6 82.9 0 0.4 174
Savigliano 27-11-2022 07:00 -0.4 83.7 0 0 174
Savigliano 27-11-2022 08:00 -0.9 82.8 0 0.7 192
Savigliano 27-11-2022 09:00 0.4 81.3 0 0.7 176
Savigliano 27-11-2022 10:00 3.8 73.7 0 0.7 150
Savigliano 27-11-2022 11:00 6.5 69.2 0 0.4 128
Savigliano 27-11-2022 12:00 7.3 61.4 0 1.1 137
Savigliano 27-11-2022 13:00 8.3 58.6 0 1.4 147
Savigliano 27-11-2022 14:00 9.5 58.7 0 1.1 212
Savigliano 27-11-2022 15:00 9.7 59.9 0 1.1 65
Savigliano 27-11-2022 16:00 9.4 64.4 0 0.4 36
Savigliano 27-11-2022 17:00 7.5 69.7 0 0 113
Savigliano 27-11-2022 18:00 7.4 72.8 0 0 325
Savigliano 27-11-2022 19:00 7.1 75.8 0 0 325
Savigliano 27-11-2022 20:00 4.8 79.2 0 0 325
Savigliano 27-11-2022 21:00 4.4 81.6 0 0 326
Savigliano 27-11-2022 22:00 4.1 84.4 0 0 224
Savigliano 27-11-2022 23:00 2.7 83.4 0 0 203
Savigliano 28-11-2022 00:00 1.8 83.7 0 0 202
Savigliano 28-11-2022 01:00 2 85.8 0 0 194
Savigliano 28-11-2022 02:00 1.5 89.1 0 0 180
Savigliano 28-11-2022 03:00 1.4 89.9 0 0 167
Savigliano 28-11-2022 04:00 1.3 90.3 0 0 163
Savigliano 28-11-2022 05:00 1.7 90.5 0 0 161
Savigliano 28-11-2022 06:00 1.8 90.4 0 0 160
Savigliano 28-11-2022 07:00 1.7 90.3 0 0 159
Savigliano 28-11-2022 08:00 2 88.3 0 1.4 160
Savigliano 28-11-2022 09:00 2 89.5 0 0.7 173
Savigliano 28-11-2022 10:00 2 88.7 0 0.4 183
Savigliano 28-11-2022 11:00 3.7 87.7 0 0.4 140
Savigliano 28-11-2022 12:00 4.4 85.1 0 0.4 101
Savigliano 28-11-2022 13:00 4.4 85 0 1.1 72
Savigliano 28-11-2022 14:00 5.4 84.3 0 0.4 91
Savigliano 28-11-2022 15:00 6.1 82.1 0 0.7 56
Savigliano 28-11-2022 16:00 6.7 82.6 0 0 56
Savigliano 28-11-2022 17:00 5.9 84.2 0 0.4 303
Savigliano 28-11-2022 18:00 4.5 84.9 0 0 309
Savigliano 28-11-2022 19:00 3.9 89.7 0 0 309
Savigliano 28-11-2022 20:00 1.8 89.6 0 0 310
Savigliano 28-11-2022 21:00 2.1 89.1 0 0 291
Savigliano 28-11-2022 22:00 2.4 90 0 0 203
Savigliano 28-11-2022 23:00 1.7 90.9 0 0 204
Savigliano 29-11-2022 00:00 -0.2 93.1 0 0 204
Savigliano 29-11-2022 01:00 0.1 93.4 0 0 204
Savigliano 29-11-2022 02:00 -0.6 93.4 0 0 205
Savigliano 29-11-2022 03:00 1.3 93.9 0 0 206
Savigliano 29-11-2022 04:00 1.7 94 0 0 205
Savigliano 29-11-2022 05:00 1.7 93.8 0 0 183
Savigliano 29-11-2022 06:00 1.9 93.8 0 0 183
Savigliano 29-11-2022 07:00 1.9 93.7 0 0 179
Savigliano 29-11-2022 08:00 1.5 93.4 0 0 188
Savigliano 29-11-2022 09:00 1.9 92.8 0 0.4 168
Savigliano 29-11-2022 10:00 3.4 92.4 0 0 201
Savigliano 29-11-2022 11:00 4.5 91.3 0 0 221
Savigliano 29-11-2022 12:00 4.9 91.2 0 0.7 243
Savigliano 29-11-2022 13:00 4.5 90.7 0 0.4 271
Savigliano 29-11-2022 14:00 4.2 89.5 0 0.4 283
Savigliano 29-11-2022 15:00 4.2 89.2 0 0.4 273
Savigliano 29-11-2022 16:00 4 91 0 1.1 317
Savigliano 29-11-2022 17:00 4.7 91 0 0 304
Savigliano 29-11-2022 18:00 4.5 90.3 0 0 302
Savigliano 29-11-2022 19:00 4.1 89.5 0 0 301
Savigliano 29-11-2022 20:00 2.3 89.8 0 0 297
Savigliano 29-11-2022 21:00 2 90.8 0 0 297
Savigliano 29-11-2022 22:00 2 93.8 0 0 297
Savigliano 29-11-2022 23:00 0 93.9 0 0 263
Savigliano 30-11-2022 00:00 -0.5 94.3 0 0 223
Savigliano 30-11-2022 01:00 -0.4 94.7 0 0.4 178
Savigliano 30-11-2022 02:00 -0.7 94.8 0 0 177
Savigliano 30-11-2022 03:00 -0.5 95.1 0 0 176
Savigliano 30-11-2022 04:00 -1.1 92.8 0 0 176
Savigliano 30-11-2022 05:00 -1 92.8 0 0.4 177
Savigliano 30-11-2022 06:00 -0.7 93.1 0 0 176
Savigliano 30-11-2022 07:00 -0.7 93.3 0 0 193
Savigliano 30-11-2022 08:00 -1.9 93 0 0 206
Savigliano 30-11-2022 09:00 -1.5 93.4 0 0 196
Savigliano 30-11-2022 10:00 0.7 94 0 0.7 137
Savigliano 30-11-2022 11:00 3.5 94.2 0 1.1 139
Savigliano 30-11-2022 12:00 4.6 89.7 0 1.4 93
Savigliano 30-11-2022 13:00 5.9 84.6 0 2.2 112
Savigliano 30-11-2022 14:00 6.9 79.8 0 2.5 88
Savigliano 30-11-2022 15:00 6.2 80.2 0 2.5 118
Savigliano 30-11-2022 16:00 4.3 87.5 0 0.7 310
Savigliano 30-11-2022 17:00 4.7 90.4 0 0 325
Savigliano 30-11-2022 18:00 4.6 89.6 0 0.7 302
Savigliano 30-11-2022 19:00 4.3 90.5 0 0.7 245
Savigliano 30-11-2022 20:00 4.1 91 0 0.4 343
Savigliano 30-11-2022 21:00 4 93.4 0 0.4 228
Savigliano 30-11-2022 22:00 2.4 93.9 0 0 108
Savigliano 30-11-2022 23:00 1.8 94.1 0 0.4 226
Savigliano 29-11-2022 10:25 0 0 0.1 0 0
Savigliano 29-11-2022 10:35 0 0 0.1 0 0
Savigliano 29-11-2022 10:50 0 0 0.1 0 0
Savigliano 29-11-2022 12:55 0 0 0.1 0 0
Savigliano 24-11-2022 16:20 0 0 0 0 204
Savigliano 25-11-2022 00:40 0 0 0 0 212
Savigliano 25-11-2022 17:20 0 0 0 0 231
Savigliano 26-11-2022 01:40 0 0 0 0 238
Savigliano 26-11-2022 16:20 0 0 0 0 151
Savigliano 27-11-2022 00:40 0 0 0 0 139
Savigliano 27-11-2022 16:20 0 0 0 0 128
Savigliano 28-11-2022 00:40 0 0 0 0 259
Savigliano 28-11-2022 17:20 0 0 0 0 133
Savigliano 29-11-2022 01:40 0 0 0 0 248
Savigliano 29-11-2022 16:20 0 0 0 0 249
Savigliano 30-11-2022 00:40 0 0 0 0 276
Savigliano 30-11-2022 16:20 0 0 0 0 156

Riassuntivo giornaliero del 30-11-2022